createdAt,value
2023-02-22T00:00:57.338Z,2.75
2023-02-22T00:03:57.063Z,3.687
2023-02-22T00:06:57.522Z,3.625
2023-02-22T00:09:56.947Z,3.625
2023-02-22T00:12:56.799Z,3.625
2023-02-22T00:15:57.675Z,3.625
2023-02-22T00:18:57.735Z,2.937
2023-02-22T00:21:57.532Z,2.812
2023-02-22T00:24:57.697Z,2.812
2023-02-22T00:27:57.368Z,2.5
2023-02-22T00:30:57.705Z,2.937
2023-02-22T00:33:57.499Z,3.375
2023-02-22T00:36:57.379Z,3.375
2023-02-22T00:39:58.203Z,3.687
2023-02-22T00:42:56.958Z,3.937
2023-02-22T00:45:57.234Z,3.937
2023-02-22T00:48:57.168Z,3.937
2023-02-22T00:51:58.326Z,3.375
2023-02-22T00:54:56.735Z,3.812
2023-02-22T00:57:57.212Z,4.625
2023-02-22T01:00:57.296Z,5.062
2023-02-22T01:03:57.201Z,5.625
2023-02-22T01:06:56.890Z,5.937
2023-02-22T01:09:57.923Z,5.875
2023-02-22T01:12:57.523Z,6.125
2023-02-22T01:15:57.464Z,6.062
2023-02-22T01:18:56.891Z,6.187
2023-02-22T01:21:57.536Z,5.937
2023-02-22T01:24:57.506Z,5.875
2023-02-22T01:27:56.817Z,5.812
2023-02-22T01:30:57.603Z,5.812
2023-02-22T01:33:57.137Z,5.812
2023-02-22T01:36:56.645Z,5.812
2023-02-22T01:39:57.390Z,5.875
2023-02-22T01:42:56.882Z,5.875
2023-02-22T01:45:57.423Z,5.437
2023-02-22T01:48:57.458Z,5.437
2023-02-22T01:51:57.253Z,5.312
2023-02-22T01:55:03.000Z,5.312
2023-02-22T01:57:57.907Z,5.812
2023-02-22T02:00:57.906Z,5.625
2023-02-22T02:03:57.231Z,5.5
2023-02-22T02:06:56.776Z,5.25
2023-02-22T02:09:57.148Z,5.25
2023-02-22T02:12:57.408Z,5.25
2023-02-22T02:15:57.316Z,5.375
2023-02-22T02:18:57.725Z,5.25
2023-02-22T02:21:57.141Z,5.25
2023-02-22T02:24:58.037Z,5.125
2023-02-22T02:27:57.639Z,5.062
2023-02-22T02:30:57.895Z,5.25
2023-02-22T02:33:57.522Z,4.937
2023-02-22T02:36:56.915Z,5.312
2023-02-22T02:39:57.794Z,5.812
2023-02-22T02:42:57.088Z,5.812
2023-02-22T02:45:57.558Z,5.812
2023-02-22T02:48:56.846Z,5.75
2023-02-22T02:51:57.413Z,5.875
2023-02-22T02:54:57.093Z,5.812
2023-02-22T02:57:56.932Z,5.875
2023-02-22T03:00:57.293Z,5.75
2023-02-22T03:03:57.294Z,5.875
2023-02-22T03:06:56.728Z,5.812
2023-02-22T03:09:57.995Z,5.687
2023-02-22T03:12:57.394Z,5.687
2023-02-22T03:15:57.143Z,5.75
2023-02-22T03:18:57.464Z,5.937
2023-02-22T03:21:57.026Z,5.937
2023-02-22T03:24:57.569Z,6.062
2023-02-22T03:27:56.829Z,6.0
2023-02-22T03:30:58.086Z,6.062
2023-02-22T03:33:57.841Z,5.937
2023-02-22T03:36:57.029Z,5.687
2023-02-22T03:39:57.759Z,5.687
2023-02-22T03:42:57.443Z,5.812
2023-02-22T03:45:57.986Z,6.062
2023-02-22T03:48:57.109Z,6.187
2023-02-22T03:51:57.629Z,6.062
2023-02-22T03:54:56.723Z,6.25
2023-02-22T03:57:56.820Z,6.25
2023-02-22T04:00:57.382Z,6.125
2023-02-22T04:03:56.770Z,6.125
2023-02-22T04:06:57.414Z,6.187
2023-02-22T04:09:57.500Z,6.187
2023-02-22T04:12:56.917Z,6.125
2023-02-22T04:15:57.186Z,6.25
2023-02-22T04:18:56.886Z,5.937
2023-02-22T04:21:57.185Z,5.937
2023-02-22T04:24:57.543Z,5.937
2023-02-22T04:27:57.396Z,6.062
2023-02-22T04:30:57.383Z,6.062
2023-02-22T04:33:57.461Z,6.062
2023-02-22T04:36:57.231Z,6.062
2023-02-22T04:39:57.244Z,6.0
2023-02-22T04:42:57.336Z,6.062
2023-02-22T04:45:57.677Z,6.0
2023-02-22T04:48:57.561Z,5.937
2023-02-22T04:51:56.913Z,5.875
2023-02-22T04:54:56.900Z,6.125
2023-02-22T04:57:57.100Z,5.875
2023-02-22T05:00:58.568Z,6.062
2023-02-22T05:03:57.876Z,5.812
2023-02-22T05:06:57.348Z,6.312
2023-02-22T05:09:57.392Z,6.437
2023-02-22T05:12:57.709Z,6.437
2023-02-22T05:15:57.434Z,6.312
2023-02-22T05:18:56.782Z,6.375
2023-02-22T05:21:57.440Z,6.312
2023-02-22T05:24:57.636Z,6.437
2023-02-22T05:27:57.243Z,6.437
2023-02-22T05:30:56.830Z,6.437
2023-02-22T05:33:56.954Z,6.5
2023-02-22T05:36:57.109Z,6.562
2023-02-22T05:39:57.784Z,6.562
2023-02-22T05:42:57.508Z,6.0
2023-02-22T05:45:57.908Z,6.562
2023-02-22T05:48:57.008Z,6.375
2023-02-22T05:51:57.242Z,6.25
2023-02-22T05:54:57.573Z,6.812
2023-02-22T05:57:57.247Z,7.062
2023-02-22T06:00:58.493Z,7.062
2023-02-22T06:03:57.602Z,7.5
2023-02-22T06:06:57.650Z,7.5
2023-02-22T06:09:57.257Z,7.25
2023-02-22T06:12:57.711Z,7.625
2023-02-22T06:15:57.644Z,7.187
2023-02-22T06:18:58.199Z,7.375
2023-02-22T06:21:57.608Z,7.25
2023-02-22T06:24:57.594Z,7.25
2023-02-22T06:27:58.535Z,6.562
2023-02-22T06:30:58.435Z,6.75
2023-02-22T06:33:57.251Z,6.5
2023-02-22T06:36:59.866Z,6.5
2023-02-22T06:40:00.728Z,6.625
2023-02-22T06:42:58.118Z,6.625
2023-02-22T06:45:57.716Z,6.625
2023-02-22T06:48:57.357Z,6.625
2023-02-22T06:51:58.190Z,6.937
2023-02-22T06:54:57.890Z,6.812
2023-02-22T06:57:57.487Z,7.0
2023-02-22T07:00:58.520Z,6.937
2023-02-22T07:03:57.475Z,7.187
2023-02-22T07:06:57.500Z,7.687
2023-02-22T07:09:57.515Z,7.75
2023-02-22T07:12:57.019Z,7.875
2023-02-22T07:15:57.298Z,7.812
2023-02-22T07:18:57.533Z,8.125
2023-02-22T07:21:57.753Z,8.062
2023-02-22T07:24:58.070Z,8.062
2023-02-22T07:27:57.809Z,7.937
2023-02-22T07:30:57.486Z,8.0
2023-02-22T07:33:57.597Z,8.187
2023-02-22T07:36:56.838Z,8.187
2023-02-22T07:39:57.482Z,8.25
2023-02-22T07:42:57.302Z,8.25
2023-02-22T07:45:57.737Z,8.25
2023-02-22T07:48:57.526Z,8.5
2023-02-22T07:51:58.149Z,8.5
2023-02-22T07:54:57.645Z,8.625
2023-02-22T07:57:57.467Z,8.625
2023-02-22T08:00:57.660Z,8.625
2023-02-22T08:03:56.672Z,8.75
2023-02-22T08:06:57.245Z,8.812
2023-02-22T08:09:57.618Z,8.812
2023-02-22T08:12:57.281Z,8.875
2023-02-22T08:15:57.506Z,9.062
2023-02-22T08:18:57.247Z,9.062
2023-02-22T08:21:57.257Z,9.062
2023-02-22T08:24:57.258Z,9.25
2023-02-22T08:27:57.203Z,9.375
2023-02-22T08:30:58.068Z,9.375
2023-02-22T08:33:57.217Z,9.5
2023-02-22T08:36:57.690Z,9.5
2023-02-22T08:39:59.290Z,9.5
2023-02-22T08:42:57.305Z,9.562
2023-02-22T08:45:57.889Z,9.625
2023-02-22T08:48:57.582Z,9.625
2023-02-22T08:51:56.671Z,9.687
2023-02-22T08:54:57.490Z,9.687
2023-02-22T08:57:57.534Z,9.625
2023-02-22T09:00:57.729Z,9.687
2023-02-22T09:03:57.540Z,9.625
2023-02-22T09:06:56.854Z,9.75
2023-02-22T09:09:57.598Z,10.125
2023-02-22T09:12:57.366Z,10.062
2023-02-22T09:15:56.983Z,10.125
2023-02-22T09:18:56.877Z,10.25
2023-02-22T09:21:56.933Z,10.5
2023-02-22T09:25:00.212Z,10.437
2023-02-22T09:27:57.129Z,10.562
2023-02-22T09:30:57.647Z,10.75
2023-02-22T09:33:57.061Z,10.75
2023-02-22T09:36:57.293Z,10.875
2023-02-22T09:39:57.984Z,10.812
2023-02-22T09:42:57.522Z,10.812
2023-02-22T09:45:57.477Z,10.875
2023-02-22T09:48:57.109Z,11.187
2023-02-22T09:51:57.009Z,11.187
2023-02-22T09:54:57.127Z,11.312
2023-02-22T09:57:56.850Z,11.312
2023-02-22T10:00:58.220Z,11.437
2023-02-22T10:03:57.309Z,11.312
2023-02-22T10:06:57.210Z,11.562
2023-02-22T10:09:58.114Z,11.375
2023-02-22T10:12:57.484Z,11.375
2023-02-22T10:15:57.186Z,11.625
2023-02-22T10:18:57.992Z,11.75
2023-02-22T10:21:56.974Z,11.812
2023-02-22T10:24:57.643Z,12.375
2023-02-22T10:27:57.383Z,12.562
2023-02-22T10:30:57.266Z,12.75
2023-02-22T10:33:57.506Z,12.75
2023-02-22T10:36:57.425Z,13.625
2023-02-22T10:39:57.141Z,14.187
2023-02-22T10:42:57.786Z,13.25
2023-02-22T10:45:57.166Z,13.25
2023-02-22T10:48:57.008Z,13.25
2023-02-22T10:51:56.969Z,14.25
2023-02-22T10:55:12.727Z,14.437
2023-02-22T10:57:57.204Z,14.75
2023-02-22T11:00:57.005Z,14.562
2023-02-22T11:04:15.756Z,14.5
2023-02-22T11:06:57.917Z,14.562
2023-02-22T11:09:56.757Z,14.875
2023-02-22T11:12:57.719Z,15.125
2023-02-22T11:15:57.007Z,14.687
2023-02-22T11:18:57.867Z,14.812
2023-02-22T11:21:57.198Z,15.25
2023-02-22T11:24:57.396Z,14.937
2023-02-22T11:27:57.348Z,15.0
2023-02-22T11:30:57.974Z,14.562
2023-02-22T11:33:57.674Z,15.0
2023-02-22T11:36:57.730Z,15.562
2023-02-22T11:39:57.716Z,15.875
2023-02-22T11:42:57.499Z,15.812
2023-02-22T11:45:59.459Z,15.375
2023-02-22T11:48:57.202Z,15.25
2023-02-22T11:51:57.542Z,15.687
2023-02-22T11:54:57.296Z,14.687
2023-02-22T11:57:57.227Z,14.562
2023-02-22T12:00:57.221Z,14.375
2023-02-22T12:03:56.890Z,14.562
2023-02-22T12:06:57.447Z,14.75
2023-02-22T12:09:57.459Z,15.0
2023-02-22T12:12:57.105Z,15.125
2023-02-22T12:15:57.802Z,15.75
2023-02-22T12:18:57.711Z,15.75
2023-02-22T12:21:57.688Z,15.375
2023-02-22T12:25:08.532Z,15.062
2023-02-22T12:27:57.515Z,15.062
2023-02-22T12:30:58.269Z,15.125
2023-02-22T12:33:56.749Z,15.125
2023-02-22T12:36:57.333Z,14.75
2023-02-22T12:43:00.012Z,15.0
2023-02-22T12:45:57.091Z,14.562
2023-02-22T12:48:57.340Z,14.562
2023-02-22T12:51:57.635Z,14.375
2023-02-22T12:54:57.483Z,14.375
2023-02-22T12:57:57.262Z,14.375
2023-02-22T13:00:58.316Z,14.437
2023-02-22T13:03:57.308Z,14.25
2023-02-22T13:06:57.973Z,14.25
2023-02-22T13:09:57.321Z,14.687
2023-02-22T13:12:57.275Z,14.562
2023-02-22T13:15:57.877Z,14.562
2023-02-22T13:18:57.654Z,14.562
2023-02-22T13:21:57.438Z,14.437
2023-02-22T13:24:57.157Z,14.437
2023-02-22T13:27:57.740Z,14.625
2023-02-22T13:30:57.401Z,14.562
2023-02-22T13:33:57.778Z,14.5
2023-02-22T13:36:57.612Z,14.562
2023-02-22T13:39:57.506Z,14.562
2023-02-22T13:42:56.964Z,14.562
2023-02-22T13:45:57.816Z,14.375
2023-02-22T13:48:57.078Z,14.5
2023-02-22T13:51:57.326Z,14.75
2023-02-22T13:54:56.987Z,14.5
2023-02-22T13:57:57.616Z,14.875
2023-02-22T14:00:57.449Z,14.937
2023-02-22T14:03:57.223Z,14.625
2023-02-22T14:06:57.086Z,14.625
2023-02-22T14:09:57.120Z,14.062
2023-02-22T14:12:57.398Z,13.937
2023-02-22T14:15:58.222Z,13.75
2023-02-22T14:18:57.656Z,13.625
2023-02-22T14:21:58.063Z,13.625
2023-02-22T14:24:57.389Z,13.5
2023-02-22T14:27:57.289Z,13.437
2023-02-22T14:30:57.618Z,13.437
2023-02-22T14:33:57.327Z,13.25
2023-02-22T14:36:57.898Z,13.187
2023-02-22T14:39:57.124Z,13.25
2023-02-22T14:42:56.893Z,13.25
2023-02-22T14:45:57.422Z,13.0
2023-02-22T14:48:57.403Z,13.0
2023-02-22T14:51:57.221Z,13.0
2023-02-22T14:54:56.993Z,12.875
2023-02-22T14:57:56.916Z,12.812
2023-02-22T15:00:57.481Z,12.812
2023-02-22T15:04:07.319Z,12.562
2023-02-22T15:06:57.331Z,12.562
2023-02-22T15:09:57.122Z,12.5
2023-02-22T15:12:57.194Z,12.375
2023-02-22T15:16:00.495Z,12.312
2023-02-22T15:18:57.358Z,12.25
2023-02-22T15:21:57.651Z,12.25
2023-02-22T15:24:56.877Z,12.25
2023-02-22T15:27:57.807Z,12.25
2023-02-22T15:30:57.532Z,12.062
2023-02-22T15:33:58.027Z,12.062
2023-02-22T15:36:57.226Z,11.875
2023-02-22T15:39:58.118Z,11.875
2023-02-22T15:42:57.604Z,11.75
2023-02-22T15:45:57.634Z,11.75
2023-02-22T15:48:57.649Z,11.687
2023-02-22T15:51:56.765Z,11.625
2023-02-22T15:54:57.617Z,11.5
2023-02-22T15:57:57.825Z,11.375
2023-02-22T16:00:57.146Z,11.375
2023-02-22T16:03:57.475Z,11.25
2023-02-22T16:06:56.665Z,11.187
2023-02-22T16:09:57.631Z,11.125
2023-02-22T16:12:57.388Z,11.0
2023-02-22T16:15:58.021Z,10.937
2023-02-22T16:18:56.834Z,10.875
2023-02-22T16:21:58.267Z,10.812
2023-02-22T16:24:57.279Z,10.75
2023-02-22T16:27:57.923Z,10.812
2023-02-22T16:30:57.813Z,10.75
2023-02-22T16:33:57.172Z,10.875
2023-02-22T16:36:57.993Z,10.625
2023-02-22T16:39:57.897Z,10.375
2023-02-22T16:42:57.669Z,10.187
2023-02-22T16:45:58.422Z,10.0
2023-02-22T16:48:57.376Z,10.0
2023-02-22T16:51:57.450Z,10.0
2023-02-22T16:54:57.586Z,10.0
2023-02-22T16:57:58.225Z,10.0
2023-02-22T17:00:58.265Z,9.687
2023-02-22T17:03:57.697Z,9.687
2023-02-22T17:06:58.318Z,9.687
2023-02-22T17:09:57.466Z,9.437
2023-02-22T17:12:57.728Z,9.375
2023-02-22T17:15:57.637Z,9.5
2023-02-22T17:18:58.650Z,9.75
2023-02-22T17:21:57.462Z,9.687
2023-02-22T17:24:57.912Z,9.5
2023-02-22T17:27:57.477Z,9.312
2023-02-22T17:30:57.519Z,9.25
2023-02-22T17:33:57.561Z,9.25
2023-02-22T17:36:57.932Z,9.125
2023-02-22T17:39:57.725Z,9.062
2023-02-22T17:42:57.202Z,9.062
2023-02-22T17:45:57.405Z,9.0
2023-02-22T17:48:58.011Z,9.25
2023-02-22T17:51:58.118Z,9.312
2023-02-22T17:54:57.262Z,9.312
2023-02-22T17:57:57.518Z,9.062
2023-02-22T18:00:58.174Z,8.937
2023-02-22T18:03:57.928Z,8.875
2023-02-22T18:06:57.765Z,8.875
2023-02-22T18:09:57.820Z,8.75
2023-02-22T18:12:57.813Z,8.625
2023-02-22T18:15:57.929Z,8.562
2023-02-22T18:18:57.765Z,8.625
2023-02-22T18:21:57.390Z,8.687
2023-02-22T18:25:00.905Z,8.625
2023-02-22T18:27:58.056Z,8.625
2023-02-22T18:30:58.334Z,8.625
2023-02-22T18:33:57.668Z,9.0
2023-02-22T18:36:57.566Z,8.937
2023-02-22T18:39:57.559Z,9.0
2023-02-22T18:42:57.666Z,9.0
2023-02-22T18:45:57.680Z,9.0
2023-02-22T18:48:57.937Z,8.937
2023-02-22T18:51:57.949Z,8.937
2023-02-22T18:54:58.025Z,8.812
2023-02-22T18:57:58.276Z,8.875
2023-02-22T19:01:26.358Z,8.812
2023-02-22T19:03:57.909Z,8.562
2023-02-22T19:06:58.194Z,8.25
2023-02-22T19:09:57.777Z,8.25
2023-02-22T19:12:57.163Z,8.5
2023-02-22T19:15:57.931Z,8.25
2023-02-22T19:18:57.786Z,8.375
2023-02-22T19:21:57.088Z,8.437
2023-02-22T19:24:57.289Z,8.375
2023-02-22T19:27:57.980Z,8.375
2023-02-22T19:30:58.248Z,8.562
2023-02-22T19:33:57.622Z,8.5
2023-02-22T19:36:57.236Z,8.312
2023-02-22T19:39:57.762Z,8.437
2023-02-22T19:42:57.929Z,8.5
2023-02-22T19:45:57.536Z,8.437
2023-02-22T19:48:57.295Z,8.312
2023-02-22T19:51:57.412Z,8.312
2023-02-22T19:54:57.000Z,8.312
2023-02-22T19:57:57.250Z,8.437
2023-02-22T20:00:57.627Z,8.375
2023-02-22T20:03:57.546Z,8.5
2023-02-22T20:07:03.647Z,8.375
2023-02-22T20:09:58.268Z,8.437
2023-02-22T20:12:57.317Z,8.437
2023-02-22T20:15:57.129Z,8.5
2023-02-22T20:18:56.897Z,8.5
2023-02-22T20:21:57.882Z,8.5
2023-02-22T20:24:57.099Z,8.375
2023-02-22T20:27:58.041Z,8.375
2023-02-22T20:30:57.617Z,8.375
2023-02-22T20:34:03.146Z,8.125
2023-02-22T20:36:57.827Z,8.062
2023-02-22T20:39:56.885Z,8.125
2023-02-22T20:42:57.675Z,8.125
2023-02-22T20:45:57.781Z,8.0
2023-02-22T20:48:57.616Z,8.125
2023-02-22T20:51:57.286Z,8.0
2023-02-22T20:54:57.645Z,8.0
2023-02-22T20:57:57.750Z,8.125
2023-02-22T21:00:57.628Z,8.0
2023-02-22T21:03:57.607Z,8.0
2023-02-22T21:06:57.509Z,8.062
2023-02-22T21:09:57.197Z,8.125
2023-02-22T21:12:58.878Z,8.125
2023-02-22T21:15:57.320Z,8.125
2023-02-22T21:18:57.315Z,8.062
2023-02-22T21:21:58.115Z,8.062
2023-02-22T21:24:57.778Z,8.0
2023-02-22T21:27:57.045Z,7.812
2023-02-22T21:30:58.822Z,7.812
2023-02-22T21:33:58.143Z,7.812
2023-02-22T21:36:57.457Z,7.75
2023-02-22T21:39:57.551Z,7.75
2023-02-22T21:42:56.919Z,7.875
2023-02-22T21:46:02.396Z,7.937
2023-02-22T21:48:57.583Z,7.937
2023-02-22T21:51:57.188Z,7.937
2023-02-22T21:54:57.570Z,7.875
2023-02-22T21:57:56.909Z,7.812
2023-02-22T22:00:58.309Z,7.812
2023-02-22T22:03:57.271Z,8.0
2023-02-22T22:06:58.008Z,8.062
2023-02-22T22:09:57.332Z,8.0
2023-02-22T22:12:57.688Z,8.0
2023-02-22T22:15:57.519Z,8.0
2023-02-22T22:18:57.912Z,7.875
2023-02-22T22:21:57.679Z,7.812
2023-02-22T22:24:57.797Z,8.062
2023-02-22T22:27:57.487Z,8.062
2023-02-22T22:30:57.629Z,8.062
2023-02-22T22:33:57.675Z,8.0
2023-02-22T22:36:57.215Z,7.937
2023-02-22T22:39:57.825Z,7.937
2023-02-22T22:42:57.159Z,8.0
2023-02-22T22:45:57.055Z,7.937
2023-02-22T22:48:57.929Z,8.062
2023-02-22T22:51:58.064Z,8.062
2023-02-22T22:54:57.545Z,8.0
2023-02-22T22:57:57.662Z,7.937
2023-02-22T23:00:57.576Z,7.75
2023-02-22T23:03:56.826Z,7.687
2023-02-22T23:06:57.746Z,7.875
2023-02-22T23:09:57.486Z,7.812
2023-02-22T23:12:56.749Z,7.875
2023-02-22T23:15:56.981Z,7.75
2023-02-22T23:18:57.023Z,7.687
2023-02-22T23:21:57.768Z,7.687
2023-02-22T23:24:57.529Z,7.75
2023-02-22T23:27:56.705Z,7.812
2023-02-22T23:30:57.597Z,7.687
2023-02-22T23:33:57.693Z,7.687
2023-02-22T23:36:57.387Z,7.625
2023-02-22T23:39:57.410Z,7.625
2023-02-22T23:42:56.844Z,7.687
2023-02-22T23:45:57.552Z,7.687
2023-02-22T23:48:57.248Z,7.812
2023-02-22T23:51:57.206Z,7.812
2023-02-22T23:54:56.608Z,7.812
2023-02-22T23:57:57.035Z,7.687
